sensor_id;sensor_type;location;lat;lon;timestamp;P1;durP1;ratioP1;P2;durP2;ratioP2
22778;SDS011;11556;51.194;3.800;2024-02-16T00:01:32;8.25;;;4.20;;
22778;SDS011;11556;51.194;3.800;2024-02-16T00:03:58;10.57;;;4.28;;
22778;SDS011;11556;51.194;3.800;2024-02-16T00:06:23;11.77;;;3.72;;
22778;SDS011;11556;51.194;3.800;2024-02-16T00:08:49;11.55;;;3.72;;
22778;SDS011;11556;51.194;3.800;2024-02-16T00:11:15;12.43;;;4.35;;
22778;SDS011;11556;51.194;3.800;2024-02-16T00:13:40;14.35;;;4.60;;
22778;SDS011;11556;51.194;3.800;2024-02-16T00:16:06;10.95;;;4.15;;
22778;SDS011;11556;51.194;3.800;2024-02-16T00:18:32;12.95;;;4.20;;
22778;SDS011;11556;51.194;3.800;2024-02-16T00:20:58;11.82;;;4.28;;
22778;SDS011;11556;51.194;3.800;2024-02-16T00:23:24;10.18;;;4.10;;
22778;SDS011;11556;51.194;3.800;2024-02-16T00:25:50;14.35;;;4.35;;
22778;SDS011;11556;51.194;3.800;2024-02-16T00:28:16;14.02;;;4.72;;
22778;SDS011;11556;51.194;3.800;2024-02-16T00:30:41;14.98;;;4.68;;
22778;SDS011;11556;51.194;3.800;2024-02-16T00:33:07;11.25;;;4.35;;
22778;SDS011;11556;51.194;3.800;2024-02-16T00:35:33;12.85;;;4.32;;
22778;SDS011;11556;51.194;3.800;2024-02-16T00:38:01;15.90;;;5.05;;
22778;SDS011;11556;51.194;3.800;2024-02-16T00:40:27;13.15;;;4.55;;
22778;SDS011;11556;51.194;3.800;2024-02-16T00:42:53;11.93;;;5.57;;
22778;SDS011;11556;51.194;3.800;2024-02-16T00:45:18;17.83;;;6.05;;
22778;SDS011;11556;51.194;3.800;2024-02-16T00:47:44;18.70;;;5.80;;
22778;SDS011;11556;51.194;3.800;2024-02-16T00:50:10;13.00;;;5.90;;
22778;SDS011;11556;51.194;3.800;2024-02-16T00:52:37;19.33;;;6.03;;
22778;SDS011;11556;51.194;3.800;2024-02-16T00:55:04;11.75;;;4.90;;
22778;SDS011;11556;51.194;3.800;2024-02-16T00:57:30;18.75;;;5.20;;
22778;SDS011;11556;51.194;3.800;2024-02-16T00:59:56;17.73;;;5.85;;
22778;SDS011;11556;51.194;3.800;2024-02-16T01:02:21;20.63;;;5.70;;
22778;SDS011;11556;51.194;3.800;2024-02-16T01:04:47;16.63;;;5.43;;
22778;SDS011;11556;51.194;3.800;2024-02-16T01:07:15;19.63;;;5.65;;
22778;SDS011;11556;51.194;3.800;2024-02-16T01:09:40;17.92;;;5.82;;
22778;SDS011;11556;51.194;3.800;2024-02-16T01:12:06;17.73;;;5.07;;
22778;SDS011;11556;51.194;3.800;2024-02-16T01:14:32;14.95;;;5.15;;
22778;SDS011;11556;51.194;3.800;2024-02-16T01:16:57;16.92;;;6.22;;
22778;SDS011;11556;51.194;3.800;2024-02-16T01:19:23;14.43;;;5.25;;
22778;SDS011;11556;51.194;3.800;2024-02-16T01:21:49;15.40;;;5.05;;
22778;SDS011;11556;51.194;3.800;2024-02-16T01:24:18;12.95;;;5.25;;
22778;SDS011;11556;51.194;3.800;2024-02-16T01:26:44;25.85;;;7.97;;
22778;SDS011;11556;51.194;3.800;2024-02-16T01:29:10;28.27;;;10.55;;
22778;SDS011;11556;51.194;3.800;2024-02-16T01:31:36;21.10;;;6.80;;
22778;SDS011;11556;51.194;3.800;2024-02-16T01:34:02;21.17;;;6.95;;
22778;SDS011;11556;51.194;3.800;2024-02-16T01:36:27;23.00;;;7.38;;
22778;SDS011;11556;51.194;3.800;2024-02-16T01:38:53;24.58;;;6.43;;
22778;SDS011;11556;51.194;3.800;2024-02-16T01:41:19;10.63;;;4.82;;
22778;SDS011;11556;51.194;3.800;2024-02-16T01:43:44;13.65;;;6.18;;
22778;SDS011;11556;51.194;3.800;2024-02-16T01:46:10;16.73;;;6.00;;
22778;SDS011;11556;51.194;3.800;2024-02-16T01:48:36;15.75;;;6.05;;
22778;SDS011;11556;51.194;3.800;2024-02-16T01:51:04;13.70;;;5.47;;
22778;SDS011;11556;51.194;3.800;2024-02-16T01:53:31;15.07;;;5.75;;
22778;SDS011;11556;51.194;3.800;2024-02-16T01:55:58;12.20;;;5.30;;
22778;SDS011;11556;51.194;3.800;2024-02-16T01:58:24;11.98;;;4.93;;
22778;SDS011;11556;51.194;3.800;2024-02-16T02:00:49;10.93;;;5.80;;
22778;SDS011;11556;51.194;3.800;2024-02-16T02:03:15;16.02;;;6.43;;
22778;SDS011;11556;51.194;3.800;2024-02-16T02:05:43;14.43;;;5.82;;
22778;SDS011;11556;51.194;3.800;2024-02-16T02:08:11;10.25;;;5.05;;
22778;SDS011;11556;51.194;3.800;2024-02-16T02:10:37;15.02;;;4.97;;
22778;SDS011;11556;51.194;3.800;2024-02-16T02:13:02;16.00;;;5.47;;
22778;SDS011;11556;51.194;3.800;2024-02-16T02:15:28;11.13;;;5.72;;
22778;SDS011;11556;51.194;3.800;2024-02-16T02:17:54;11.00;;;5.22;;
22778;SDS011;11556;51.194;3.800;2024-02-16T02:20:19;15.82;;;5.60;;
22778;SDS011;11556;51.194;3.800;2024-02-16T02:22:45;16.48;;;5.20;;
22778;SDS011;11556;51.194;3.800;2024-02-16T02:25:11;13.23;;;5.00;;
22778;SDS011;11556;51.194;3.800;2024-02-16T02:27:37;12.32;;;5.63;;
22778;SDS011;11556;51.194;3.800;2024-02-16T02:30:03;11.98;;;5.07;;
22778;SDS011;11556;51.194;3.800;2024-02-16T02:32:30;11.35;;;5.45;;
22778;SDS011;11556;51.194;3.800;2024-02-16T02:34:56;15.80;;;5.32;;
22778;SDS011;11556;51.194;3.800;2024-02-16T02:37:21;10.20;;;5.32;;
22778;SDS011;11556;51.194;3.800;2024-02-16T02:39:47;12.85;;;5.65;;
22778;SDS011;11556;51.194;3.800;2024-02-16T02:42:13;10.05;;;5.60;;
22778;SDS011;11556;51.194;3.800;2024-02-16T02:44:39;15.38;;;6.22;;
22778;SDS011;11556;51.194;3.800;2024-02-16T02:47:05;14.40;;;5.78;;
22778;SDS011;11556;51.194;3.800;2024-02-16T02:49:31;7.93;;;4.78;;
22778;SDS011;11556;51.194;3.800;2024-02-16T02:51:59;9.00;;;4.82;;
22778;SDS011;11556;51.194;3.800;2024-02-16T02:54:25;10.43;;;4.93;;
22778;SDS011;11556;51.194;3.800;2024-02-16T02:56:51;8.35;;;4.25;;
22778;SDS011;11556;51.194;3.800;2024-02-16T02:59:16;11.75;;;4.80;;
22778;SDS011;11556;51.194;3.800;2024-02-16T03:01:42;10.77;;;5.20;;
22778;SDS011;11556;51.194;3.800;2024-02-16T03:04:08;10.48;;;4.95;;
22778;SDS011;11556;51.194;3.800;2024-02-16T03:06:34;10.25;;;4.70;;
22778;SDS011;11556;51.194;3.800;2024-02-16T03:09:00;13.57;;;5.03;;
22778;SDS011;11556;51.194;3.800;2024-02-16T03:11:25;11.68;;;5.03;;
22778;SDS011;11556;51.194;3.800;2024-02-16T03:13:51;11.45;;;5.03;;
22778;SDS011;11556;51.194;3.800;2024-02-16T03:16:17;8.43;;;4.80;;
22778;SDS011;11556;51.194;3.800;2024-02-16T03:18:42;12.23;;;4.97;;
22778;SDS011;11556;51.194;3.800;2024-02-16T03:21:12;9.68;;;5.07;;
22778;SDS011;11556;51.194;3.800;2024-02-16T03:26:13;6.65;;;4.03;;
22778;SDS011;11556;51.194;3.800;2024-02-16T03:28:39;6.68;;;3.83;;
22778;SDS011;11556;51.194;3.800;2024-02-16T03:31:05;12.00;;;4.15;;
22778;SDS011;11556;51.194;3.800;2024-02-16T03:33:33;4.55;;;3.22;;
22778;SDS011;11556;51.194;3.800;2024-02-16T03:35:58;6.45;;;3.40;;
22778;SDS011;11556;51.194;3.800;2024-02-16T03:38:25;7.65;;;3.70;;
22778;SDS011;11556;51.194;3.800;2024-02-16T03:40:51;5.75;;;3.80;;
22778;SDS011;11556;51.194;3.800;2024-02-16T03:43:16;4.90;;;3.70;;
22778;SDS011;11556;51.194;3.800;2024-02-16T03:45:42;5.22;;;3.60;;
22778;SDS011;11556;51.194;3.800;2024-02-16T03:48:08;5.50;;;3.88;;
22778;SDS011;11556;51.194;3.800;2024-02-16T03:50:34;9.40;;;3.85;;
22778;SDS011;11556;51.194;3.800;2024-02-16T03:53:00;7.18;;;4.18;;
22778;SDS011;11556;51.194;3.800;2024-02-16T03:55:26;6.70;;;4.03;;
22778;SDS011;11556;51.194;3.800;2024-02-16T03:57:51;7.63;;;4.03;;
22778;SDS011;11556;51.194;3.800;2024-02-16T04:00:17;7.35;;;3.78;;
22778;SDS011;11556;51.194;3.800;2024-02-16T04:02:42;3.92;;;3.55;;
22778;SDS011;11556;51.194;3.800;2024-02-16T04:05:08;5.88;;;3.88;;
22778;SDS011;11556;51.194;3.800;2024-02-16T04:07:34;8.68;;;4.28;;
22778;SDS011;11556;51.194;3.800;2024-02-16T04:10:00;6.60;;;4.60;;
22778;SDS011;11556;51.194;3.800;2024-02-16T04:12:26;8.68;;;4.60;;
22778;SDS011;11556;51.194;3.800;2024-02-16T04:14:52;6.93;;;4.00;;
22778;SDS011;11556;51.194;3.800;2024-02-16T04:17:17;4.55;;;3.55;;
22778;SDS011;11556;51.194;3.800;2024-02-16T04:19:43;7.82;;;3.72;;
22778;SDS011;11556;51.194;3.800;2024-02-16T04:22:09;7.00;;;3.72;;
22778;SDS011;11556;51.194;3.800;2024-02-16T04:24:34;5.38;;;3.17;;
22778;SDS011;11556;51.194;3.800;2024-02-16T04:27:00;6.78;;;3.53;;
22778;SDS011;11556;51.194;3.800;2024-02-16T04:29:26;6.85;;;3.60;;
22778;SDS011;11556;51.194;3.800;2024-02-16T04:31:51;6.10;;;3.65;;
22778;SDS011;11556;51.194;3.800;2024-02-16T04:34:17;7.03;;;3.83;;
22778;SDS011;11556;51.194;3.800;2024-02-16T04:36:43;4.60;;;3.70;;
22778;SDS011;11556;51.194;3.800;2024-02-16T04:39:08;6.13;;;3.78;;
22778;SDS011;11556;51.194;3.800;2024-02-16T04:41:35;7.65;;;4.30;;
22778;SDS011;11556;51.194;3.800;2024-02-16T04:44:01;8.52;;;3.90;;
22778;SDS011;11556;51.194;3.800;2024-02-16T04:46:26;11.73;;;3.92;;
22778;SDS011;11556;51.194;3.800;2024-02-16T04:48:52;7.38;;;3.80;;
22778;SDS011;11556;51.194;3.800;2024-02-16T04:51:18;9.88;;;3.83;;
22778;SDS011;11556;51.194;3.800;2024-02-16T04:53:43;4.88;;;3.88;;
22778;SDS011;11556;51.194;3.800;2024-02-16T04:56:09;7.03;;;3.78;;
22778;SDS011;11556;51.194;3.800;2024-02-16T04:58:35;6.82;;;3.65;;
22778;SDS011;11556;51.194;3.800;2024-02-16T05:01:04;6.32;;;3.85;;
22778;SDS011;11556;51.194;3.800;2024-02-16T05:03:31;8.57;;;4.00;;
22778;SDS011;11556;51.194;3.800;2024-02-16T05:05:57;9.27;;;4.50;;
22778;SDS011;11556;51.194;3.800;2024-02-16T05:08:23;6.85;;;4.22;;
22778;SDS011;11556;51.194;3.800;2024-02-16T05:10:48;8.23;;;3.97;;
22778;SDS011;11556;51.194;3.800;2024-02-16T05:13:14;7.88;;;4.40;;
22778;SDS011;11556;51.194;3.800;2024-02-16T05:15:39;6.60;;;3.90;;
22778;SDS011;11556;51.194;3.800;2024-02-16T05:18:05;5.15;;;3.63;;
22778;SDS011;11556;51.194;3.800;2024-02-16T05:20:31;7.97;;;3.85;;
22778;SDS011;11556;51.194;3.800;2024-02-16T05:22:57;8.18;;;3.45;;
22778;SDS011;11556;51.194;3.800;2024-02-16T05:25:23;6.80;;;3.50;;
22778;SDS011;11556;51.194;3.800;2024-02-16T05:27:48;5.00;;;3.80;;
22778;SDS011;11556;51.194;3.800;2024-02-16T05:30:14;5.88;;;3.92;;
22778;SDS011;11556;51.194;3.800;2024-02-16T05:32:41;7.25;;;4.03;;
22778;SDS011;11556;51.194;3.800;2024-02-16T05:35:07;5.90;;;3.70;;
22778;SDS011;11556;51.194;3.800;2024-02-16T05:37:40;10.02;;;4.88;;
22778;SDS011;11556;51.194;3.800;2024-02-16T05:40:09;7.65;;;4.18;;
22778;SDS011;11556;51.194;3.800;2024-02-16T05:42:54;6.78;;;3.47;;
22778;SDS011;11556;51.194;3.800;2024-02-16T05:45:24;11.13;;;3.65;;
22778;SDS011;11556;51.194;3.800;2024-02-16T05:47:51;11.88;;;4.15;;
22778;SDS011;11556;51.194;3.800;2024-02-16T05:50:17;6.93;;;3.97;;
22778;SDS011;11556;51.194;3.800;2024-02-16T05:52:45;7.32;;;3.88;;
22778;SDS011;11556;51.194;3.800;2024-02-16T05:55:11;7.85;;;4.00;;
22778;SDS011;11556;51.194;3.800;2024-02-16T05:57:38;9.20;;;4.05;;
22778;SDS011;11556;51.194;3.800;2024-02-16T06:00:04;8.75;;;4.10;;
22778;SDS011;11556;51.194;3.800;2024-02-16T06:02:34;6.75;;;3.97;;
22778;SDS011;11556;51.194;3.800;2024-02-16T06:05:00;7.80;;;3.80;;
22778;SDS011;11556;51.194;3.800;2024-02-16T06:07:27;10.80;;;4.32;;
22778;SDS011;11556;51.194;3.800;2024-02-16T06:09:54;5.85;;;3.63;;
22778;SDS011;11556;51.194;3.800;2024-02-16T06:12:21;8.35;;;4.28;;
22778;SDS011;11556;51.194;3.800;2024-02-16T06:14:46;8.30;;;3.88;;
22778;SDS011;11556;51.194;3.800;2024-02-16T06:17:13;11.40;;;4.38;;
22778;SDS011;11556;51.194;3.800;2024-02-16T06:19:42;7.57;;;3.90;;
22778;SDS011;11556;51.194;3.800;2024-02-16T06:22:08;9.48;;;4.07;;
22778;SDS011;11556;51.194;3.800;2024-02-16T06:24:35;6.35;;;4.03;;
22778;SDS011;11556;51.194;3.800;2024-02-16T06:27:01;9.27;;;4.00;;
22778;SDS011;11556;51.194;3.800;2024-02-16T06:29:28;8.63;;;4.07;;
22778;SDS011;11556;51.194;3.800;2024-02-16T06:31:55;6.25;;;3.70;;
22778;SDS011;11556;51.194;3.800;2024-02-16T06:34:21;7.45;;;4.30;;
22778;SDS011;11556;51.194;3.800;2024-02-16T06:36:46;7.68;;;4.10;;
22778;SDS011;11556;51.194;3.800;2024-02-16T06:39:13;7.75;;;3.83;;
22778;SDS011;11556;51.194;3.800;2024-02-16T06:41:43;9.23;;;4.38;;
22778;SDS011;11556;51.194;3.800;2024-02-16T06:44:10;10.45;;;4.30;;
22778;SDS011;11556;51.194;3.800;2024-02-16T06:46:40;10.20;;;4.32;;
22778;SDS011;11556;51.194;3.800;2024-02-16T06:49:06;7.20;;;4.10;;
22778;SDS011;11556;51.194;3.800;2024-02-16T06:51:32;9.20;;;4.78;;
22778;SDS011;11556;51.194;3.800;2024-02-16T06:53:58;11.95;;;5.25;;
22778;SDS011;11556;51.194;3.800;2024-02-16T06:56:23;6.95;;;4.47;;
22778;SDS011;11556;51.194;3.800;2024-02-16T06:58:49;10.48;;;4.65;;
22778;SDS011;11556;51.194;3.800;2024-02-16T07:01:15;10.07;;;5.35;;
22778;SDS011;11556;51.194;3.800;2024-02-16T07:03:44;7.30;;;5.05;;
22778;SDS011;11556;51.194;3.800;2024-02-16T07:06:11;11.18;;;5.60;;
22778;SDS011;11556;51.194;3.800;2024-02-16T07:08:41;10.13;;;5.95;;
22778;SDS011;11556;51.194;3.800;2024-02-16T07:11:08;8.18;;;4.55;;
22778;SDS011;11556;51.194;3.800;2024-02-16T07:13:38;9.93;;;4.53;;
22778;SDS011;11556;51.194;3.800;2024-02-16T07:16:05;8.45;;;3.85;;
22778;SDS011;11556;51.194;3.800;2024-02-16T07:18:33;7.88;;;4.28;;
22778;SDS011;11556;51.194;3.800;2024-02-16T07:20:59;8.10;;;4.60;;
22778;SDS011;11556;51.194;3.800;2024-02-16T07:23:25;6.97;;;4.70;;
22778;SDS011;11556;51.194;3.800;2024-02-16T07:25:51;8.70;;;4.78;;
22778;SDS011;11556;51.194;3.800;2024-02-16T07:28:21;9.77;;;4.82;;
22778;SDS011;11556;51.194;3.800;2024-02-16T07:30:50;8.98;;;4.70;;
22778;SDS011;11556;51.194;3.800;2024-02-16T07:33:16;9.27;;;4.70;;
22778;SDS011;11556;51.194;3.800;2024-02-16T07:35:42;9.65;;;4.85;;
22778;SDS011;11556;51.194;3.800;2024-02-16T07:38:08;9.57;;;5.15;;
22778;SDS011;11556;51.194;3.800;2024-02-16T07:40:34;8.68;;;4.80;;
22778;SDS011;11556;51.194;3.800;2024-02-16T07:43:00;9.38;;;5.00;;
22778;SDS011;11556;51.194;3.800;2024-02-16T07:45:26;8.82;;;4.72;;
22778;SDS011;11556;51.194;3.800;2024-02-16T07:47:52;8.77;;;5.30;;
22778;SDS011;11556;51.194;3.800;2024-02-16T07:50:18;9.95;;;5.07;;
22778;SDS011;11556;51.194;3.800;2024-02-16T07:52:45;7.30;;;4.65;;
22778;SDS011;11556;51.194;3.800;2024-02-16T07:55:11;9.77;;;4.88;;
22778;SDS011;11556;51.194;3.800;2024-02-16T07:57:36;7.63;;;4.80;;
22778;SDS011;11556;51.194;3.800;2024-02-16T08:00:03;8.77;;;4.85;;
22778;SDS011;11556;51.194;3.800;2024-02-16T08:02:29;11.52;;;5.03;;
22778;SDS011;11556;51.194;3.800;2024-02-16T08:04:55;10.57;;;4.70;;
22778;SDS011;11556;51.194;3.800;2024-02-16T08:07:21;16.63;;;7.72;;
22778;SDS011;11556;51.194;3.800;2024-02-16T08:09:46;14.65;;;7.32;;
22778;SDS011;11556;51.194;3.800;2024-02-16T08:12:12;21.60;;;8.20;;
22778;SDS011;11556;51.194;3.800;2024-02-16T08:14:38;11.43;;;5.15;;
22778;SDS011;11556;51.194;3.800;2024-02-16T08:17:07;13.40;;;5.25;;
22778;SDS011;11556;51.194;3.800;2024-02-16T08:19:35;8.65;;;4.85;;
22778;SDS011;11556;51.194;3.800;2024-02-16T08:22:02;11.07;;;4.85;;
22778;SDS011;11556;51.194;3.800;2024-02-16T08:24:31;13.88;;;4.82;;
22778;SDS011;11556;51.194;3.800;2024-02-16T08:26:57;9.70;;;5.38;;
22778;SDS011;11556;51.194;3.800;2024-02-16T08:29:23;8.65;;;5.47;;
22778;SDS011;11556;51.194;3.800;2024-02-16T08:31:52;11.07;;;4.97;;
22778;SDS011;11556;51.194;3.800;2024-02-16T08:34:18;10.38;;;5.55;;
22778;SDS011;11556;51.194;3.800;2024-02-16T08:36:47;12.10;;;5.50;;
22778;SDS011;11556;51.194;3.800;2024-02-16T08:39:13;14.40;;;5.80;;
22778;SDS011;11556;51.194;3.800;2024-02-16T08:41:40;8.82;;;4.95;;
22778;SDS011;11556;51.194;3.800;2024-02-16T08:44:06;14.07;;;5.80;;
22778;SDS011;11556;51.194;3.800;2024-02-16T08:46:38;10.68;;;6.00;;
22778;SDS011;11556;51.194;3.800;2024-02-16T08:49:04;10.63;;;5.35;;
22778;SDS011;11556;51.194;3.800;2024-02-16T08:51:33;12.55;;;5.90;;
22778;SDS011;11556;51.194;3.800;2024-02-16T08:53:59;11.70;;;5.35;;
22778;SDS011;11556;51.194;3.800;2024-02-16T08:56:25;9.10;;;5.78;;
22778;SDS011;11556;51.194;3.800;2024-02-16T08:58:52;12.65;;;5.82;;
22778;SDS011;11556;51.194;3.800;2024-02-16T09:01:17;10.50;;;5.15;;
22778;SDS011;11556;51.194;3.800;2024-02-16T09:03:43;11.55;;;6.72;;
22778;SDS011;11556;51.194;3.800;2024-02-16T09:06:09;12.70;;;6.00;;
22778;SDS011;11556;51.194;3.800;2024-02-16T09:08:34;13.35;;;6.57;;
22778;SDS011;11556;51.194;3.800;2024-02-16T09:11:03;15.90;;;6.45;;
22778;SDS011;11556;51.194;3.800;2024-02-16T09:13:36;9.82;;;5.97;;
22778;SDS011;11556;51.194;3.800;2024-02-16T09:16:04;11.68;;;6.07;;
22778;SDS011;11556;51.194;3.800;2024-02-16T09:18:30;15.27;;;6.25;;
22778;SDS011;11556;51.194;3.800;2024-02-16T09:20:56;12.30;;;6.15;;
22778;SDS011;11556;51.194;3.800;2024-02-16T09:23:21;13.25;;;6.60;;
22778;SDS011;11556;51.194;3.800;2024-02-16T09:25:48;12.02;;;6.22;;
22778;SDS011;11556;51.194;3.800;2024-02-16T09:28:15;11.18;;;6.50;;
22778;SDS011;11556;51.194;3.800;2024-02-16T09:30:43;14.32;;;6.88;;
22778;SDS011;11556;51.194;3.800;2024-02-16T09:33:08;18.88;;;8.13;;
22778;SDS011;11556;51.194;3.800;2024-02-16T09:35:34;14.73;;;7.40;;
22778;SDS011;11556;51.194;3.800;2024-02-16T09:38:00;15.38;;;7.43;;
22778;SDS011;11556;51.194;3.800;2024-02-16T09:40:25;14.07;;;7.78;;
22778;SDS011;11556;51.194;3.800;2024-02-16T09:42:51;16.27;;;8.07;;
22778;SDS011;11556;51.194;3.800;2024-02-16T09:45:17;14.73;;;7.78;;
22778;SDS011;11556;51.194;3.800;2024-02-16T09:47:43;14.18;;;8.32;;
22778;SDS011;11556;51.194;3.800;2024-02-16T09:50:12;19.10;;;8.23;;
22778;SDS011;11556;51.194;3.800;2024-02-16T09:52:38;18.77;;;9.02;;
22778;SDS011;11556;51.194;3.800;2024-02-16T09:55:07;16.17;;;9.30;;
22778;SDS011;11556;51.194;3.800;2024-02-16T09:57:36;17.35;;;9.35;;
22778;SDS011;11556;51.194;3.800;2024-02-16T10:00:02;13.50;;;8.88;;
22778;SDS011;11556;51.194;3.800;2024-02-16T10:02:40;17.20;;;9.77;;
22778;SDS011;11556;51.194;3.800;2024-02-16T10:05:13;17.83;;;9.93;;
22778;SDS011;11556;51.194;3.800;2024-02-16T10:07:40;21.98;;;10.63;;
22778;SDS011;11556;51.194;3.800;2024-02-16T10:10:16;15.75;;;10.10;;
22778;SDS011;11556;51.194;3.800;2024-02-16T10:12:48;21.57;;;10.77;;
22778;SDS011;11556;51.194;3.800;2024-02-16T10:15:21;16.13;;;10.30;;
22778;SDS011;11556;51.194;3.800;2024-02-16T10:17:57;20.42;;;11.82;;
22778;SDS011;11556;51.194;3.800;2024-02-16T10:20:26;23.15;;;11.68;;
22778;SDS011;11556;51.194;3.800;2024-02-16T10:23:08;23.23;;;12.40;;
22778;SDS011;11556;51.194;3.800;2024-02-16T10:25:35;24.58;;;12.57;;
22778;SDS011;11556;51.194;3.800;2024-02-16T10:28:05;21.92;;;13.05;;
22778;SDS011;11556;51.194;3.800;2024-02-16T10:30:36;23.13;;;13.55;;
22778;SDS011;11556;51.194;3.800;2024-02-16T10:33:03;26.33;;;14.43;;
22778;SDS011;11556;51.194;3.800;2024-02-16T10:35:30;25.30;;;14.48;;
22778;SDS011;11556;51.194;3.800;2024-02-16T10:37:58;24.52;;;14.73;;
22778;SDS011;11556;51.194;3.800;2024-02-16T10:40:32;27.75;;;16.05;;
22778;SDS011;11556;51.194;3.800;2024-02-16T10:43:00;25.33;;;16.23;;
22778;SDS011;11556;51.194;3.800;2024-02-16T10:45:29;28.52;;;16.42;;
22778;SDS011;11556;51.194;3.800;2024-02-16T10:47:57;30.80;;;17.45;;
22778;SDS011;11556;51.194;3.800;2024-02-16T10:50:22;30.17;;;17.23;;
22778;SDS011;11556;51.194;3.800;2024-02-16T10:52:48;27.58;;;17.45;;
22778;SDS011;11556;51.194;3.800;2024-02-16T10:55:14;32.67;;;20.02;;
22778;SDS011;11556;51.194;3.800;2024-02-16T10:57:41;28.90;;;18.23;;
22778;SDS011;11556;51.194;3.800;2024-02-16T11:00:07;31.52;;;18.60;;
22778;SDS011;11556;51.194;3.800;2024-02-16T11:02:56;32.33;;;18.70;;
22778;SDS011;11556;51.194;3.800;2024-02-16T11:05:39;36.58;;;18.38;;
22778;SDS011;11556;51.194;3.800;2024-02-16T11:08:41;28.88;;;18.25;;
22778;SDS011;11556;51.194;3.800;2024-02-16T11:11:03;35.90;;;19.20;;
22778;SDS011;11556;51.194;3.800;2024-02-16T11:13:32;30.15;;;17.90;;
22778;SDS011;11556;51.194;3.800;2024-02-16T11:15:59;23.73;;;15.50;;
22778;SDS011;11556;51.194;3.800;2024-02-16T11:18:28;26.20;;;15.70;;
22778;SDS011;11556;51.194;3.800;2024-02-16T11:20:55;21.92;;;13.77;;
22778;SDS011;11556;51.194;3.800;2024-02-16T11:23:27;20.88;;;12.77;;
22778;SDS011;11556;51.194;3.800;2024-02-16T11:25:54;19.95;;;11.90;;
22778;SDS011;11556;51.194;3.800;2024-02-16T11:28:25;18.50;;;12.23;;
22778;SDS011;11556;51.194;3.800;2024-02-16T11:30:52;18.63;;;11.60;;
22778;SDS011;11556;51.194;3.800;2024-02-16T11:33:17;16.80;;;11.05;;
22778;SDS011;11556;51.194;3.800;2024-02-16T11:35:52;18.33;;;11.82;;
22778;SDS011;11556;51.194;3.800;2024-02-16T11:38:24;15.32;;;10.45;;
22778;SDS011;11556;51.194;3.800;2024-02-16T11:40:55;15.93;;;10.50;;
22778;SDS011;11556;51.194;3.800;2024-02-16T11:43:25;18.63;;;10.48;;
22778;SDS011;11556;51.194;3.800;2024-02-16T11:45:51;18.48;;;10.95;;
22778;SDS011;11556;51.194;3.800;2024-02-16T11:48:20;15.70;;;10.32;;
22778;SDS011;11556;51.194;3.800;2024-02-16T11:50:47;14.82;;;10.00;;
22778;SDS011;11556;51.194;3.800;2024-02-16T11:53:20;16.35;;;9.15;;
22778;SDS011;11556;51.194;3.800;2024-02-16T11:55:46;12.07;;;9.32;;
22778;SDS011;11556;51.194;3.800;2024-02-16T11:58:14;11.10;;;7.97;;
22778;SDS011;11556;51.194;3.800;2024-02-16T12:00:41;14.02;;;8.48;;
22778;SDS011;11556;51.194;3.800;2024-02-16T12:03:07;10.55;;;7.35;;
22778;SDS011;11556;51.194;3.800;2024-02-16T12:05:33;11.63;;;7.80;;
22778;SDS011;11556;51.194;3.800;2024-02-16T12:07:58;13.63;;;8.32;;
22778;SDS011;11556;51.194;3.800;2024-02-16T12:10:24;8.60;;;7.15;;
22778;SDS011;11556;51.194;3.800;2024-02-16T12:12:51;11.75;;;7.63;;
22778;SDS011;11556;51.194;3.800;2024-02-16T12:15:17;9.07;;;7.03;;
22778;SDS011;11556;51.194;3.800;2024-02-16T12:17:44;11.15;;;7.38;;
22778;SDS011;11556;51.194;3.800;2024-02-16T12:20:11;14.32;;;7.43;;
22778;SDS011;11556;51.194;3.800;2024-02-16T12:22:39;8.18;;;6.70;;
22778;SDS011;11556;51.194;3.800;2024-02-16T12:25:05;9.30;;;6.43;;
22778;SDS011;11556;51.194;3.800;2024-02-16T12:27:31;7.55;;;6.03;;
22778;SDS011;11556;51.194;3.800;2024-02-16T12:29:57;9.38;;;6.40;;
22778;SDS011;11556;51.194;3.800;2024-02-16T12:32:22;10.25;;;5.90;;
22778;SDS011;11556;51.194;3.800;2024-02-16T12:34:48;8.30;;;6.30;;
22778;SDS011;11556;51.194;3.800;2024-02-16T12:37:14;6.88;;;5.22;;
22778;SDS011;11556;51.194;3.800;2024-02-16T12:39:39;6.93;;;5.50;;
22778;SDS011;11556;51.194;3.800;2024-02-16T12:42:06;6.93;;;5.15;;
22778;SDS011;11556;51.194;3.800;2024-02-16T12:44:31;6.50;;;4.60;;
22778;SDS011;11556;51.194;3.800;2024-02-16T12:46:57;4.75;;;4.10;;
22778;SDS011;11556;51.194;3.800;2024-02-16T12:49:23;5.47;;;4.43;;
22778;SDS011;11556;51.194;3.800;2024-02-16T12:51:49;6.72;;;4.38;;
22778;SDS011;11556;51.194;3.800;2024-02-16T12:54:15;6.15;;;4.55;;
22778;SDS011;11556;51.194;3.800;2024-02-16T12:56:44;6.93;;;5.13;;
22778;SDS011;11556;51.194;3.800;2024-02-16T12:59:13;6.20;;;4.80;;
22778;SDS011;11556;51.194;3.800;2024-02-16T13:01:39;7.82;;;5.15;;
22778;SDS011;11556;51.194;3.800;2024-02-16T13:04:06;9.35;;;5.35;;
22778;SDS011;11556;51.194;3.800;2024-02-16T13:06:32;9.38;;;5.57;;
22778;SDS011;11556;51.194;3.800;2024-02-16T13:08:58;6.18;;;5.00;;
22778;SDS011;11556;51.194;3.800;2024-02-16T13:11:24;8.93;;;5.13;;
22778;SDS011;11556;51.194;3.800;2024-02-16T13:13:50;6.97;;;4.97;;
22778;SDS011;11556;51.194;3.800;2024-02-16T13:16:16;5.13;;;4.60;;
22778;SDS011;11556;51.194;3.800;2024-02-16T13:18:43;6.28;;;4.85;;
22778;SDS011;11556;51.194;3.800;2024-02-16T13:21:08;7.57;;;5.90;;
22778;SDS011;11556;51.194;3.800;2024-02-16T13:23:34;8.82;;;5.70;;
22778;SDS011;11556;51.194;3.800;2024-02-16T13:26:00;7.07;;;5.10;;
22778;SDS011;11556;51.194;3.800;2024-02-16T13:28:25;6.60;;;4.90;;
22778;SDS011;11556;51.194;3.800;2024-02-16T13:30:51;8.30;;;4.72;;
22778;SDS011;11556;51.194;3.800;2024-02-16T13:33:16;6.00;;;4.75;;
22778;SDS011;11556;51.194;3.800;2024-02-16T13:35:42;4.70;;;3.67;;
22778;SDS011;11556;51.194;3.800;2024-02-16T13:38:08;5.95;;;3.85;;
22778;SDS011;11556;51.194;3.800;2024-02-16T13:40:33;5.05;;;3.70;;
22778;SDS011;11556;51.194;3.800;2024-02-16T13:43:00;6.28;;;3.28;;
22778;SDS011;11556;51.194;3.800;2024-02-16T13:45:46;4.03;;;2.70;;
22778;SDS011;11556;51.194;3.800;2024-02-16T13:48:16;6.25;;;2.80;;
22778;SDS011;11556;51.194;3.800;2024-02-16T13:50:46;5.05;;;2.75;;
22778;SDS011;11556;51.194;3.800;2024-02-16T13:53:13;3.97;;;2.30;;
22778;SDS011;11556;51.194;3.800;2024-02-16T13:55:39;5.03;;;2.00;;
22778;SDS011;11556;51.194;3.800;2024-02-16T13:58:06;6.35;;;2.20;;
22778;SDS011;11556;51.194;3.800;2024-02-16T14:00:31;4.85;;;2.20;;
22778;SDS011;11556;51.194;3.800;2024-02-16T14:02:57;4.03;;;2.75;;
22778;SDS011;11556;51.194;3.800;2024-02-16T14:05:23;4.53;;;2.42;;
22778;SDS011;11556;51.194;3.800;2024-02-16T14:07:50;4.63;;;2.50;;
22778;SDS011;11556;51.194;3.800;2024-02-16T14:10:16;3.13;;;2.13;;
22778;SDS011;11556;51.194;3.800;2024-02-16T14:12:44;4.18;;;2.42;;
22778;SDS011;11556;51.194;3.800;2024-02-16T14:15:11;4.25;;;2.95;;
22778;SDS011;11556;51.194;3.800;2024-02-16T14:17:40;6.53;;;3.50;;
22778;SDS011;11556;51.194;3.800;2024-02-16T14:20:07;7.20;;;2.83;;
22778;SDS011;11556;51.194;3.800;2024-02-16T14:22:33;5.70;;;2.80;;
22778;SDS011;11556;51.194;3.800;2024-02-16T14:24:59;4.97;;;2.67;;
22778;SDS011;11556;51.194;3.800;2024-02-16T14:27:24;3.40;;;2.55;;
22778;SDS011;11556;51.194;3.800;2024-02-16T14:29:50;4.82;;;2.50;;
22778;SDS011;11556;51.194;3.800;2024-02-16T14:32:16;5.40;;;2.45;;
22778;SDS011;11556;51.194;3.800;2024-02-16T14:34:42;5.53;;;2.35;;
22778;SDS011;11556;51.194;3.800;2024-02-16T14:37:08;5.68;;;2.83;;
22778;SDS011;11556;51.194;3.800;2024-02-16T14:39:35;4.07;;;2.35;;